createdAt,value
2018-08-27T00:00:25.004Z,13.50
2018-08-27T00:02:53.482Z,13.40
2018-08-27T00:05:21.928Z,13.40
2018-08-27T00:07:51.500Z,13.40
2018-08-27T00:10:20.977Z,13.40
2018-08-27T00:12:49.768Z,13.40
2018-08-27T00:15:19.245Z,13.30
2018-08-27T00:17:47.709Z,13.30
2018-08-27T00:20:16.233Z,13.30
2018-08-27T00:22:45.422Z,13.20
2018-08-27T00:25:14.893Z,13.20
2018-08-27T00:27:43.721Z,13.20
2018-08-27T00:30:13.218Z,13.20
2018-08-27T00:32:41.825Z,13.20
2018-08-27T00:35:10.305Z,13.20
2018-08-27T00:37:38.785Z,13.20
2018-08-27T00:40:07.317Z,13.20
2018-08-27T00:42:35.749Z,13.20
2018-08-27T00:45:04.585Z,13.20
2018-08-27T00:47:33.007Z,13.20
2018-08-27T00:50:01.497Z,13.20
2018-08-27T00:52:29.951Z,13.10
2018-08-27T00:54:58.389Z,13.10
2018-08-27T00:57:27.344Z,13.10
2018-08-27T00:59:56.129Z,13.20
2018-08-27T01:02:24.589Z,13.20
2018-08-27T01:04:53.447Z,13.20
2018-08-27T01:07:22.223Z,13.20
2018-08-27T01:10:03.001Z,13.20
2018-08-27T01:12:32.116Z,13.20
2018-08-27T01:15:00.586Z,13.20
2018-08-27T01:17:29.982Z,13.10
2018-08-27T01:19:58.809Z,13.10
2018-08-27T01:22:27.265Z,13.10
2018-08-27T01:24:57.204Z,13.10
2018-08-27T01:27:25.630Z,13.00
2018-08-27T01:29:54.114Z,13.10
2018-08-27T01:32:27.259Z,13.00
2018-08-27T01:34:58.556Z,13.00
2018-08-27T01:37:27.321Z,13.00
2018-08-27T01:39:56.903Z,13.00
2018-08-27T01:42:27.654Z,13.00
2018-08-27T01:44:56.636Z,13.00
2018-08-27T01:47:25.101Z,13.00
2018-08-27T01:49:53.910Z,13.00
2018-08-27T01:52:22.955Z,12.90
2018-08-27T01:54:51.576Z,12.90
2018-08-27T01:57:21.070Z,12.90
2018-08-27T01:59:50.078Z,12.90
2018-08-27T02:02:19.468Z,12.90
2018-08-27T02:04:48.273Z,12.90
2018-08-27T02:07:16.701Z,12.90
2018-08-27T02:09:45.169Z,12.90
2018-08-27T02:12:13.659Z,12.90
2018-08-27T02:14:43.156Z,12.90
2018-08-27T02:17:12.557Z,12.90
2018-08-27T02:19:42.063Z,12.90
2018-08-27T02:22:10.502Z,12.90
2018-08-27T02:24:39.624Z,12.90
2018-08-27T02:27:08.430Z,12.90
2018-08-27T02:29:37.180Z,12.90
2018-08-27T02:32:06.057Z,12.90
2018-08-27T02:34:34.838Z,12.90
2018-08-27T02:37:03.970Z,13.00
2018-08-27T02:39:33.433Z,12.90
2018-08-27T02:42:02.249Z,12.90
2018-08-27T02:44:30.692Z,12.90
2018-08-27T02:46:59.113Z,12.90
2018-08-27T02:49:28.595Z,12.90
2018-08-27T02:51:58.130Z,12.90
2018-08-27T02:54:27.110Z,12.80
2018-08-27T02:56:55.569Z,12.80
2018-08-27T02:59:24.359Z,12.80
2018-08-27T03:01:53.192Z,12.80
2018-08-27T03:04:21.981Z,12.80
2018-08-27T03:06:50.777Z,12.80
2018-08-27T03:09:19.223Z,12.70
2018-08-27T03:11:48.697Z,12.80
2018-08-27T03:14:18.185Z,12.80
2018-08-27T03:16:46.641Z,12.80
2018-08-27T03:19:15.410Z,12.80
2018-08-27T03:21:45.175Z,12.80
2018-08-27T03:24:13.640Z,12.80
2018-08-27T03:26:42.068Z,12.80
2018-08-27T03:29:11.852Z,12.80
2018-08-27T03:31:40.312Z,12.80
2018-08-27T03:34:09.508Z,12.90
2018-08-27T03:36:38.277Z,12.90
2018-08-27T03:39:09.560Z,12.90
2018-08-27T03:41:39.251Z,12.80
2018-08-27T03:44:07.797Z,12.90
2018-08-27T03:46:37.133Z,12.90
2018-08-27T03:49:06.292Z,12.90
2018-08-27T03:51:35.085Z,12.90
2018-08-27T03:54:04.201Z,12.90
2018-08-27T03:56:32.662Z,12.90
2018-08-27T03:59:01.437Z,12.90
2018-08-27T04:01:29.882Z,12.90
2018-08-27T04:03:59.244Z,12.90
2018-08-27T04:06:27.705Z,12.90
2018-08-27T04:08:56.529Z,12.80
2018-08-27T04:11:25.005Z,12.90
2018-08-27T04:13:53.812Z,12.80
2018-08-27T04:16:22.273Z,12.80
2018-08-27T04:18:51.121Z,12.80
2018-08-27T04:21:20.025Z,12.80
2018-08-27T04:23:48.505Z,12.80
2018-08-27T04:26:18.554Z,12.80
2018-08-27T04:28:47.436Z,12.80
2018-08-27T04:31:16.274Z,12.80
2018-08-27T04:33:44.769Z,12.80
2018-08-27T04:36:13.841Z,12.80
2018-08-27T04:38:42.624Z,12.90
2018-08-27T04:41:11.412Z,12.90
2018-08-27T04:43:39.871Z,12.90
2018-08-27T04:46:09.349Z,12.80
2018-08-27T04:48:38.699Z,12.90
2018-08-27T04:51:07.847Z,12.90
2018-08-27T04:53:36.649Z,12.90
2018-08-27T04:56:05.888Z,12.90
2018-08-27T04:58:37.781Z,12.90
2018-08-27T05:01:06.570Z,12.90
2018-08-27T05:03:35.393Z,13.00
2018-08-27T05:06:04.289Z,13.00
2018-08-27T05:08:33.645Z,13.10
2018-08-27T05:11:02.125Z,13.10
2018-08-27T05:13:31.528Z,13.20
2018-08-27T05:16:00.069Z,13.20
2018-08-27T05:18:28.991Z,13.30
2018-08-27T05:21:01.950Z,13.30
2018-08-27T05:23:32.408Z,13.30
2018-08-27T05:26:00.966Z,13.40
2018-08-27T05:28:33.957Z,13.50
2018-08-27T05:31:03.699Z,13.50
2018-08-27T05:33:32.308Z,13.60
2018-08-27T05:36:01.097Z,13.70
2018-08-27T05:38:29.529Z,13.70
2018-08-27T05:40:58.503Z,13.80
2018-08-27T05:43:27.327Z,13.90
2018-08-27T05:45:55.766Z,14.00
2018-08-27T05:48:24.258Z,14.00
2018-08-27T05:50:53.765Z,14.10
2018-08-27T05:53:22.195Z,14.20
2018-08-27T05:55:51.421Z,14.30
2018-08-27T05:58:19.857Z,14.30
2018-08-27T06:00:48.342Z,14.40
2018-08-27T06:03:16.966Z,14.50
2018-08-27T06:05:45.412Z,14.60
2018-08-27T06:08:13.937Z,14.70
2018-08-27T06:10:42.376Z,14.80
2018-08-27T06:13:11.427Z,14.90
2018-08-27T06:15:40.828Z,15.00
2018-08-27T06:18:10.355Z,15.10
2018-08-27T06:20:39.974Z,15.30
2018-08-27T06:23:08.741Z,15.40
2018-08-27T06:25:37.157Z,15.60
2018-08-27T06:28:05.671Z,15.80
2018-08-27T06:30:34.140Z,15.90
2018-08-27T06:33:02.633Z,16.00
2018-08-27T06:35:31.109Z,16.10
2018-08-27T06:37:59.940Z,16.20
2018-08-27T06:40:28.913Z,16.30
2018-08-27T06:42:58.889Z,16.30
2018-08-27T06:45:28.032Z,16.40
2018-08-27T06:47:56.465Z,16.50
2018-08-27T06:50:25.577Z,16.60
2018-08-27T06:52:54.146Z,16.80
2018-08-27T06:55:22.577Z,17.00
2018-08-27T06:57:51.021Z,17.10
2018-08-27T07:00:20.181Z,17.10
2018-08-27T07:02:48.634Z,17.10
2018-08-27T07:05:17.421Z,17.20
2018-08-27T07:07:46.876Z,17.20
2018-08-27T07:10:17.158Z,17.30
2018-08-27T07:12:46.517Z,17.40
2018-08-27T07:15:15.707Z,17.60
2018-08-27T07:17:44.491Z,17.70
2018-08-27T07:20:13.611Z,17.80
2018-08-27T07:22:42.917Z,17.90
2018-08-27T07:25:13.173Z,18.10
2018-08-27T07:27:42.033Z,18.50
2018-08-27T07:30:10.797Z,18.70
2018-08-27T07:32:39.736Z,19.00
2018-08-27T07:35:08.900Z,19.10
2018-08-27T07:37:37.841Z,19.10
2018-08-27T07:40:06.413Z,19.10
2018-08-27T07:42:35.514Z,19.10
2018-08-27T07:45:05.628Z,19.00
2018-08-27T07:47:35.749Z,18.90
2018-08-27T07:50:05.198Z,18.90
2018-08-27T07:52:33.632Z,18.80
2018-08-27T07:55:05.157Z,18.90
2018-08-27T07:57:34.909Z,19.10
2018-08-27T08:00:03.539Z,19.40
2018-08-27T08:02:31.973Z,19.70
2018-08-27T08:05:06.985Z,19.90
2018-08-27T08:07:36.342Z,20.20
2018-08-27T08:10:05.841Z,20.40
2018-08-27T08:12:34.933Z,20.60
2018-08-27T08:15:05.162Z,20.80
2018-08-27T08:17:33.941Z,21.10
2018-08-27T08:20:03.467Z,21.30
2018-08-27T08:22:32.264Z,21.40
2018-08-27T08:25:01.264Z,21.60
2018-08-27T08:27:30.248Z,21.80
2018-08-27T08:30:00.808Z,21.90
2018-08-27T08:32:30.154Z,22.10
2018-08-27T08:34:59.310Z,22.20
2018-08-27T08:37:28.161Z,22.30
2018-08-27T08:39:56.658Z,22.30
2018-08-27T08:42:25.627Z,22.40
2018-08-27T08:44:54.414Z,22.60
2018-08-27T08:47:23.208Z,22.70
2018-08-27T08:49:52.031Z,22.80
2018-08-27T08:52:20.832Z,22.80
2018-08-27T08:54:50.537Z,23.00
2018-08-27T08:57:19.413Z,23.10
2018-08-27T08:59:48.505Z,23.40
2018-08-27T09:02:17.324Z,23.60
2018-08-27T09:04:46.516Z,23.80
2018-08-27T09:07:14.982Z,23.90
2018-08-27T09:09:44.086Z,23.80
2018-08-27T09:12:13.270Z,23.80
2018-08-27T09:14:41.709Z,23.90
2018-08-27T09:17:10.213Z,23.90
2018-08-27T09:19:39.179Z,23.90
2018-08-27T09:22:08.993Z,24.00
2018-08-27T09:24:37.168Z,24.20
2018-08-27T09:27:05.952Z,24.20
2018-08-27T09:29:34.731Z,24.20
2018-08-27T09:32:03.570Z,24.30
2018-08-27T09:34:32.634Z,24.50
2018-08-27T09:37:01.192Z,24.70
2018-08-27T09:39:30.854Z,24.80
2018-08-27T09:41:59.054Z,25.00
2018-08-27T09:44:27.524Z,25.30
2018-08-27T09:46:55.861Z,25.50
2018-08-27T09:49:25.441Z,25.60
2018-08-27T09:51:53.888Z,25.60
2018-08-27T09:54:22.413Z,25.30
2018-08-27T09:56:50.601Z,25.50
2018-08-27T09:59:18.797Z,25.50
2018-08-27T10:01:52.837Z,25.60
2018-08-27T10:04:21.332Z,25.50
2018-08-27T10:06:49.511Z,25.50
2018-08-27T10:09:18.011Z,25.40
2018-08-27T10:11:46.180Z,25.30
2018-08-27T10:14:14.964Z,25.10
2018-08-27T10:16:43.176Z,25.00
2018-08-27T10:19:11.358Z,24.80
2018-08-27T10:21:41.340Z,24.70
2018-08-27T10:24:09.858Z,24.70
2018-08-27T10:26:38.112Z,24.70
2018-08-27T10:29:06.768Z,24.60
2018-08-27T10:31:35.395Z,24.80
2018-08-27T10:34:03.572Z,24.60
2018-08-27T10:36:32.398Z,24.60
2018-08-27T10:39:01.316Z,24.60
2018-08-27T10:41:29.485Z,24.50
2018-08-27T10:43:58.330Z,24.60
2018-08-27T10:46:26.522Z,24.50
2018-08-27T10:48:55.429Z,24.40
2018-08-27T10:51:23.609Z,24.30
2018-08-27T10:53:52.476Z,24.30
2018-08-27T10:56:21.185Z,24.30
2018-08-27T10:58:49.350Z,24.20
2018-08-27T11:01:17.905Z,24.10
2018-08-27T11:03:47.001Z,24.10
2018-08-27T11:06:15.668Z,24.10
2018-08-27T11:08:43.930Z,23.90
2018-08-27T11:11:12.421Z,24.00
2018-08-27T11:13:41.189Z,24.00
2018-08-27T11:16:09.673Z,24.00
2018-08-27T11:18:38.342Z,24.20
2018-08-27T11:21:07.121Z,24.20
2018-08-27T11:23:35.901Z,24.10
2018-08-27T11:26:04.752Z,24.10
2018-08-27T11:28:33.257Z,24.10
2018-08-27T11:31:01.782Z,24.10
2018-08-27T11:33:30.213Z,24.10
2018-08-27T11:35:58.710Z,24.00
2018-08-27T11:38:27.226Z,24.10
2018-08-27T11:40:55.693Z,23.90
2018-08-27T11:43:24.176Z,24.00
2018-08-27T11:45:52.809Z,23.90
2018-08-27T11:48:20.966Z,24.10
2018-08-27T11:50:49.194Z,24.10
2018-08-27T11:53:17.801Z,24.10
2018-08-27T11:55:46.557Z,24.20
2018-08-27T11:58:14.717Z,24.20
2018-08-27T12:00:48.589Z,24.30
2018-08-27T12:03:16.773Z,24.20
2018-08-27T12:05:45.262Z,24.30
2018-08-27T12:08:13.815Z,24.30
2018-08-27T12:10:43.640Z,24.50
2018-08-27T12:13:11.822Z,24.70
2018-08-27T12:15:40.000Z,24.60
2018-08-27T12:18:08.558Z,24.60
2018-08-27T12:20:37.093Z,24.70
2018-08-27T12:23:05.649Z,24.70
2018-08-27T12:25:33.814Z,24.70
2018-08-27T12:28:02.425Z,24.50
2018-08-27T12:30:30.977Z,24.40
2018-08-27T12:32:59.154Z,24.40
2018-08-27T12:35:27.647Z,24.40
2018-08-27T12:37:56.397Z,24.50
2018-08-27T12:40:24.540Z,24.50
2018-08-27T12:42:53.081Z,24.40
2018-08-27T12:45:21.309Z,24.40
2018-08-27T12:47:49.848Z,24.40
2018-08-27T12:50:18.351Z,24.30
2018-08-27T12:52:47.189Z,24.40
2018-08-27T12:55:16.393Z,24.50
2018-08-27T12:57:44.881Z,24.60
2018-08-27T13:00:16.921Z,24.60
2018-08-27T13:02:46.493Z,24.60
2018-08-27T13:05:15.229Z,24.70
2018-08-27T13:07:45.015Z,24.70
2018-08-27T13:10:14.281Z,24.70
2018-08-27T13:12:43.137Z,24.80
2018-08-27T13:15:11.554Z,24.80
2018-08-27T13:17:40.770Z,24.80
2018-08-27T13:20:10.345Z,24.90
2018-08-27T13:22:38.941Z,25.00
2018-08-27T13:25:08.033Z,25.10
2018-08-27T13:27:36.199Z,25.20
2018-08-27T13:30:05.490Z,25.10
2018-08-27T13:32:34.510Z,25.10
2018-08-27T13:35:03.094Z,25.00
2018-08-27T13:37:31.598Z,25.10
2018-08-27T13:40:00.291Z,25.20
2018-08-27T13:42:29.520Z,25.30
2018-08-27T13:44:57.729Z,25.40
2018-08-27T13:47:27.261Z,25.40
2018-08-27T13:49:55.441Z,25.40
2018-08-27T13:52:23.628Z,25.50
2018-08-27T13:54:52.456Z,25.40
2018-08-27T13:57:20.982Z,25.40
2018-08-27T13:59:49.548Z,25.50
2018-08-27T14:02:18.558Z,25.50
2018-08-27T14:04:46.738Z,25.40
2018-08-27T14:07:15.884Z,25.40
2018-08-27T14:09:44.060Z,25.40
2018-08-27T14:12:13.598Z,25.30
2018-08-27T14:14:41.871Z,25.30
2018-08-27T14:17:10.109Z,25.30
2018-08-27T14:19:38.336Z,25.20
2018-08-27T14:22:06.988Z,25.20
2018-08-27T14:24:35.526Z,25.20
2018-08-27T14:27:04.057Z,25.40
2018-08-27T14:29:32.590Z,25.30
2018-08-27T14:32:00.759Z,25.20
2018-08-27T14:34:30.741Z,25.20
2018-08-27T14:37:00.309Z,25.20
2018-08-27T14:39:29.164Z,25.30
2018-08-27T14:42:32.162Z,25.30
2018-08-27T14:45:01.328Z,25.20
2018-08-27T14:47:29.706Z,25.20
2018-08-27T14:49:58.803Z,25.30
2018-08-27T14:52:27.993Z,25.30
2018-08-27T14:54:56.166Z,25.30
2018-08-27T14:57:24.694Z,25.40
2018-08-27T14:59:53.187Z,25.50
2018-08-27T15:02:21.350Z,25.40
2018-08-27T15:04:51.681Z,25.40
2018-08-27T15:07:21.911Z,25.30
2018-08-27T15:09:54.286Z,25.30
2018-08-27T15:12:29.150Z,25.30
2018-08-27T15:14:58.932Z,25.30
2018-08-27T15:17:30.674Z,25.20
2018-08-27T15:19:58.859Z,25.20
2018-08-27T15:22:27.068Z,25.10
2018-08-27T15:24:56.237Z,25.10
2018-08-27T15:27:24.770Z,25.10
2018-08-27T15:29:54.204Z,25.20
2018-08-27T15:32:22.753Z,25.10
2018-08-27T15:34:51.798Z,25.10
2018-08-27T15:37:20.384Z,25.10
2018-08-27T15:39:49.093Z,25.10
2018-08-27T15:42:18.070Z,25.10
2018-08-27T15:44:46.605Z,25.20
2018-08-27T15:47:17.338Z,25.10
2018-08-27T15:49:45.504Z,25.00
2018-08-27T15:52:14.240Z,25.00
2018-08-27T15:54:42.444Z,24.90
2018-08-27T15:57:10.694Z,25.00
2018-08-27T15:59:39.125Z,25.00
2018-08-27T16:02:07.667Z,25.00
2018-08-27T16:04:36.921Z,25.00
2018-08-27T16:07:07.949Z,25.00
2018-08-27T16:09:36.838Z,25.00
2018-08-27T16:12:05.486Z,25.00
2018-08-27T16:14:34.048Z,24.90
2018-08-27T16:17:02.276Z,24.80
2018-08-27T16:19:31.279Z,24.80
2018-08-27T16:22:00.059Z,24.70
2018-08-27T16:24:32.434Z,24.80
2018-08-27T16:27:01.239Z,24.80
2018-08-27T16:32:15.645Z,24.80
2018-08-27T16:34:44.057Z,24.90
2018-08-27T16:37:12.829Z,24.80
2018-08-27T16:39:41.789Z,24.70
2018-08-27T16:42:10.312Z,24.70
2018-08-27T16:44:39.461Z,24.70
2018-08-27T16:47:08.757Z,24.70
2018-08-27T16:49:37.012Z,24.70
2018-08-27T16:52:21.511Z,24.60
2018-08-27T16:54:50.784Z,24.60
2018-08-27T16:57:19.340Z,24.70
2018-08-27T16:59:47.882Z,24.60
2018-08-27T17:02:17.380Z,24.60
2018-08-27T17:04:47.366Z,24.60
2018-08-27T17:07:18.786Z,24.60
2018-08-27T17:09:47.380Z,24.60
2018-08-27T17:12:17.913Z,24.50
2018-08-27T17:14:50.685Z,24.50
2018-08-27T17:17:19.679Z,24.50
2018-08-27T17:19:48.245Z,24.40
2018-08-27T17:22:16.463Z,24.30
2018-08-27T17:24:44.705Z,24.30
2018-08-27T17:27:12.911Z,24.20
2018-08-27T17:29:41.444Z,24.10
2018-08-27T17:32:10.518Z,24.10
2018-08-27T17:34:39.676Z,24.00
2018-08-27T17:37:08.662Z,24.10
2018-08-27T17:39:36.841Z,24.00
2018-08-27T17:42:06.230Z,24.00
2018-08-27T17:44:34.423Z,24.00
2018-08-27T17:47:04.413Z,23.90
2018-08-27T17:49:33.342Z,23.90
2018-08-27T17:52:18.819Z,23.90
2018-08-27T18:10:12.724Z,23.70
2018-08-27T18:12:41.589Z,23.40
2018-08-27T18:15:11.650Z,23.30
2018-08-27T18:17:40.501Z,23.30
2018-08-27T18:20:09.645Z,23.30
2018-08-27T18:22:38.213Z,23.30
2018-08-27T18:25:08.282Z,23.30
2018-08-27T18:27:37.480Z,23.30
2018-08-27T18:30:06.833Z,23.30
2018-08-27T18:32:36.428Z,23.20
2018-08-27T18:35:06.386Z,23.20
2018-08-27T18:37:35.177Z,23.20
2018-08-27T18:40:04.624Z,23.30
2018-08-27T18:42:33.067Z,23.30
2018-08-27T18:45:32.430Z,23.20
2018-08-27T18:48:01.568Z,23.20
2018-08-27T18:50:32.137Z,23.20
2018-08-27T18:53:04.149Z,23.20
2018-08-27T18:55:33.983Z,23.10
2018-08-27T18:58:03.429Z,23.10
2018-08-27T19:00:31.663Z,23.10
2018-08-27T19:03:03.175Z,23.00
2018-08-27T19:05:32.220Z,23.00
2018-08-27T19:08:01.651Z,23.00
2018-08-27T19:10:30.513Z,22.90
2018-08-27T19:12:59.439Z,22.80
2018-08-27T19:15:28.086Z,22.90
2018-08-27T19:17:56.550Z,22.80
2018-08-27T19:20:25.084Z,22.80
2018-08-27T19:22:56.198Z,22.70
2018-08-27T19:25:25.218Z,22.70
2018-08-27T19:27:54.949Z,22.80
2018-08-27T19:30:23.754Z,22.70
2018-08-27T19:32:52.611Z,22.60
2018-08-27T19:35:21.560Z,22.60
2018-08-27T19:37:50.188Z,22.60
2018-08-27T19:40:19.053Z,22.60
2018-08-27T19:42:48.235Z,22.70
2018-08-27T19:45:17.090Z,22.60
2018-08-27T19:47:45.569Z,22.50
2018-08-27T19:50:14.676Z,22.50
2018-08-27T19:52:43.481Z,22.50
2018-08-27T19:55:12.077Z,22.50
2018-08-27T19:57:40.883Z,22.50
2018-08-27T20:03:05.629Z,22.50
2018-08-27T20:05:35.321Z,22.40
2018-08-27T20:08:04.228Z,22.40
2018-08-27T20:10:34.453Z,22.40
2018-08-27T20:15:42.231Z,22.30
2018-08-27T20:18:12.981Z,22.20
2018-08-27T20:20:42.564Z,22.10
2018-08-27T20:23:11.818Z,22.00
2018-08-27T20:25:40.768Z,22.00
2018-08-27T20:28:10.077Z,22.00
2018-08-27T20:30:39.015Z,22.10
2018-08-27T20:33:08.967Z,22.00
2018-08-27T20:35:38.365Z,22.00
2018-08-27T20:38:07.430Z,21.90
2018-08-27T20:40:36.367Z,21.90
2018-08-27T20:43:05.345Z,21.80
2018-08-27T20:45:36.207Z,21.80
2018-08-27T20:48:05.714Z,21.80
2018-08-27T20:50:35.191Z,21.70
2018-08-27T20:53:04.157Z,21.70
2018-08-27T20:55:33.406Z,21.60
2018-08-27T20:58:02.594Z,21.50
2018-08-27T21:00:32.673Z,21.50
2018-08-27T21:03:05.837Z,21.50
2018-08-27T21:05:35.138Z,21.40
2018-08-27T21:08:04.308Z,21.40
2018-08-27T21:10:33.930Z,21.40
2018-08-27T21:13:02.726Z,21.40
2018-08-27T21:15:32.263Z,21.30
2018-08-27T21:18:06.416Z,21.40
2018-08-27T21:20:36.501Z,21.30
2018-08-27T21:23:06.434Z,21.20
2018-08-27T21:25:37.794Z,21.20
2018-08-27T21:28:06.479Z,21.10
2018-08-27T21:30:35.321Z,21.10
2018-08-27T21:33:05.733Z,21.00
2018-08-27T21:35:40.272Z,20.90
2018-08-27T21:38:10.150Z,20.90
2018-08-27T21:40:40.353Z,20.90
2018-08-27T21:43:10.448Z,20.90
2018-08-27T21:45:39.443Z,20.80
2018-08-27T21:48:09.561Z,20.80
2018-08-27T21:50:38.569Z,20.80
2018-08-27T21:53:07.667Z,20.90
2018-08-27T21:55:36.619Z,20.90
2018-08-27T21:58:05.784Z,20.80
2018-08-27T22:00:38.625Z,20.80
2018-08-27T22:03:17.738Z,20.80
2018-08-27T22:05:46.964Z,20.80
2018-08-27T22:08:15.845Z,20.80
2018-08-27T22:10:44.376Z,20.90
2018-08-27T22:13:13.588Z,20.80
2018-08-27T22:15:42.477Z,20.80
2018-08-27T22:18:23.155Z,20.70
2018-08-27T22:20:51.747Z,20.60
2018-08-27T22:23:21.867Z,20.70
2018-08-27T22:25:51.575Z,20.70
2018-08-27T22:28:24.440Z,20.70
2018-08-27T22:30:53.036Z,20.70
2018-08-27T22:33:22.461Z,20.60
2018-08-27T22:35:51.440Z,20.50
2018-08-27T22:38:20.884Z,20.40
2018-08-27T22:40:50.731Z,20.30
2018-08-27T22:43:19.566Z,20.30
2018-08-27T22:45:51.487Z,20.30
2018-08-27T22:48:20.355Z,20.30
2018-08-27T22:50:48.999Z,20.30
2018-08-27T22:53:18.023Z,20.30
2018-08-27T22:55:46.912Z,20.30
2018-08-27T22:58:15.739Z,20.20
2018-08-27T23:00:46.948Z,20.20
2018-08-27T23:03:21.029Z,20.20
2018-08-27T23:05:49.603Z,20.20
2018-08-27T23:08:18.820Z,20.10
2018-08-27T23:10:47.472Z,20.00
2018-08-27T23:13:16.668Z,20.10
2018-08-27T23:15:47.036Z,19.90
2018-08-27T23:18:17.343Z,19.80
2018-08-27T23:20:46.917Z,19.80
2018-08-27T23:23:15.847Z,19.80
2018-08-27T23:25:44.937Z,19.60
2018-08-27T23:28:13.590Z,19.60
2018-08-27T23:30:43.590Z,19.60
2018-08-27T23:33:14.553Z,19.60
2018-08-27T23:35:43.913Z,19.70
2018-08-27T23:38:13.162Z,19.60
2018-08-27T23:40:43.039Z,19.50
2018-08-27T23:43:12.218Z,19.50
2018-08-27T23:45:41.879Z,19.50
2018-08-27T23:48:11.330Z,19.60
2018-08-27T23:50:41.385Z,19.60
2018-08-27T23:53:09.989Z,19.50
2018-08-27T23:55:39.494Z,19.50
2018-08-27T23:58:09.207Z,19.50
